Cedarville, California
Current Conditions -  °F | °C
As of 8:55 AM on Friday 28 Nov 2014 (Local Time) from KAAT Reporting Station
Clear Clear  
Wind Chill: 38°   Ceiling: Unl
Heat Index: 38°   Visibility: 10mi
Dew Point: 29°   Wind: 0mph
Humidity: 70%   Direction: NA
Pressure: 29.9"   Gusts: NA
Location:  41.53°N, 120.18°W
Report Text: KAAT 281655Z AUTO 00000KT 10SM CLR 03/M02 A2990 RMK AO2 SLP129 T00331017
Loading
Personal Weather Stations






























Interactive Weather Map New forecast layout! Learn more

10-Day Weather Forecast

Advertisements
Track Severe Weather on mobile